sensor_id;sensor_type;location;lat;lon;timestamp;P1;durP1;ratioP1;P2;durP2;ratioP2
64826;SDS011;51265;53.972;12.286;2022-09-24T00:01:55;2.25;;;1.70;;
64826;SDS011;51265;53.972;12.286;2022-09-24T00:04:23;2.00;;;1.73;;
64826;SDS011;51265;53.972;12.286;2022-09-24T00:06:50;3.15;;;2.00;;
64826;SDS011;51265;53.972;12.286;2022-09-24T00:09:17;2.28;;;1.83;;
64826;SDS011;51265;53.972;12.286;2022-09-24T00:11:46;2.28;;;1.98;;
64826;SDS011;51265;53.972;12.286;2022-09-24T00:14:14;2.83;;;1.90;;
64826;SDS011;51265;53.972;12.286;2022-09-24T00:16:41;2.53;;;2.05;;
64826;SDS011;51265;53.972;12.286;2022-09-24T00:19:09;3.70;;;1.95;;
64826;SDS011;51265;53.972;12.286;2022-09-24T00:21:36;2.67;;;1.80;;
64826;SDS011;51265;53.972;12.286;2022-09-24T00:24:07;2.78;;;1.80;;
64826;SDS011;51265;53.972;12.286;2022-09-24T00:26:34;2.03;;;1.70;;
64826;SDS011;51265;53.972;12.286;2022-09-24T00:29:17;3.88;;;2.13;;
64826;SDS011;51265;53.972;12.286;2022-09-24T00:31:45;2.58;;;1.73;;
64826;SDS011;51265;53.972;12.286;2022-09-24T00:34:12;2.30;;;1.90;;
64826;SDS011;51265;53.972;12.286;2022-09-24T00:36:38;2.45;;;2.00;;
64826;SDS011;51265;53.972;12.286;2022-09-24T00:39:04;2.50;;;2.03;;
64826;SDS011;51265;53.972;12.286;2022-09-24T00:41:31;2.50;;;2.10;;
64826;SDS011;51265;53.972;12.286;2022-09-24T00:43:59;4.97;;;2.47;;
64826;SDS011;51265;53.972;12.286;2022-09-24T00:46:31;2.35;;;2.05;;
64826;SDS011;51265;53.972;12.286;2022-09-24T00:49:02;4.13;;;1.90;;
64826;SDS011;51265;53.972;12.286;2022-09-24T00:51:30;2.97;;;2.20;;
64826;SDS011;51265;53.972;12.286;2022-09-24T00:53:58;4.53;;;2.10;;
64826;SDS011;51265;53.972;12.286;2022-09-24T00:56:29;2.47;;;1.98;;
64826;SDS011;51265;53.972;12.286;2022-09-24T00:58:58;2.90;;;2.08;;
64826;SDS011;51265;53.972;12.286;2022-09-24T01:01:27;3.50;;;2.55;;
64826;SDS011;51265;53.972;12.286;2022-09-24T01:03:55;3.00;;;2.20;;
64826;SDS011;51265;53.972;12.286;2022-09-24T01:06:22;4.72;;;2.20;;
64826;SDS011;51265;53.972;12.286;2022-09-24T01:08:49;3.97;;;2.30;;
64826;SDS011;51265;53.972;12.286;2022-09-24T01:11:18;3.30;;;2.55;;
64826;SDS011;51265;53.972;12.286;2022-09-24T01:25:22;3.55;;;2.60;;
64826;SDS011;51265;53.972;12.286;2022-09-24T01:32:13;2.75;;;2.38;;
64826;SDS011;51265;53.972;12.286;2022-09-24T01:35:07;3.42;;;2.75;;
64826;SDS011;51265;53.972;12.286;2022-09-24T01:37:31;3.47;;;2.60;;
64826;SDS011;51265;53.972;12.286;2022-09-24T01:40:00;5.03;;;2.20;;
64826;SDS011;51265;53.972;12.286;2022-09-24T01:42:29;4.10;;;2.50;;
64826;SDS011;51265;53.972;12.286;2022-09-24T01:44:56;3.42;;;2.42;;
64826;SDS011;51265;53.972;12.286;2022-09-24T01:47:28;3.35;;;2.42;;
64826;SDS011;51265;53.972;12.286;2022-09-24T01:50:05;4.53;;;2.92;;
64826;SDS011;51265;53.972;12.286;2022-09-24T01:52:34;3.25;;;2.78;;
64826;SDS011;51265;53.972;12.286;2022-09-24T01:55:06;3.78;;;2.53;;
64826;SDS011;51265;53.972;12.286;2022-09-24T01:57:37;3.08;;;2.38;;
64826;SDS011;51265;53.972;12.286;2022-09-24T02:00:13;3.38;;;2.45;;
64826;SDS011;51265;53.972;12.286;2022-09-24T02:03:03;3.70;;;2.72;;
64826;SDS011;51265;53.972;12.286;2022-09-24T02:05:40;5.82;;;2.60;;
64826;SDS011;51265;53.972;12.286;2022-09-24T02:08:09;3.50;;;2.50;;
64826;SDS011;51265;53.972;12.286;2022-09-24T02:10:44;3.38;;;2.50;;
64826;SDS011;51265;53.972;12.286;2022-09-24T02:13:14;3.55;;;2.75;;
64826;SDS011;51265;53.972;12.286;2022-09-24T02:15:45;5.57;;;2.30;;
64826;SDS011;51265;53.972;12.286;2022-09-24T02:18:15;3.80;;;2.60;;
64826;SDS011;51265;53.972;12.286;2022-09-24T02:20:44;2.83;;;2.53;;
64826;SDS011;51265;53.972;12.286;2022-09-24T02:23:11;2.75;;;2.35;;
64826;SDS011;51265;53.972;12.286;2022-09-24T02:25:45;3.78;;;2.75;;
64826;SDS011;51265;53.972;12.286;2022-09-24T02:28:22;4.60;;;2.40;;
64826;SDS011;51265;53.972;12.286;2022-09-24T02:30:49;3.80;;;2.28;;
64826;SDS011;51265;53.972;12.286;2022-09-24T02:33:19;3.75;;;2.83;;
64826;SDS011;51265;53.972;12.286;2022-09-24T02:36:06;4.55;;;2.90;;
64826;SDS011;51265;53.972;12.286;2022-09-24T02:38:33;3.47;;;2.83;;
64826;SDS011;51265;53.972;12.286;2022-09-24T02:40:59;2.95;;;2.63;;
64826;SDS011;51265;53.972;12.286;2022-09-24T02:43:25;3.38;;;2.60;;
64826;SDS011;51265;53.972;12.286;2022-09-24T02:45:58;4.53;;;2.50;;
64826;SDS011;51265;53.972;12.286;2022-09-24T02:48:23;3.45;;;2.60;;
64826;SDS011;51265;53.972;12.286;2022-09-24T02:50:49;3.75;;;2.40;;
64826;SDS011;51265;53.972;12.286;2022-09-24T02:53:15;5.07;;;2.60;;
64826;SDS011;51265;53.972;12.286;2022-09-24T02:55:41;2.92;;;2.60;;
64826;SDS011;51265;53.972;12.286;2022-09-24T03:01:55;3.17;;;2.60;;
64826;SDS011;51265;53.972;12.286;2022-09-24T03:04:21;4.03;;;2.40;;
64826;SDS011;51265;53.972;12.286;2022-09-24T03:06:47;4.20;;;2.80;;
64826;SDS011;51265;53.972;12.286;2022-09-24T03:09:31;4.38;;;2.70;;
64826;SDS011;51265;53.972;12.286;2022-09-24T03:11:57;3.75;;;3.05;;
64826;SDS011;51265;53.972;12.286;2022-09-24T03:14:25;3.35;;;2.67;;
64826;SDS011;51265;53.972;12.286;2022-09-24T03:16:51;2.97;;;2.42;;
64826;SDS011;51265;53.972;12.286;2022-09-24T03:19:17;4.78;;;2.70;;
64826;SDS011;51265;53.972;12.286;2022-09-24T03:21:42;3.20;;;2.63;;
64826;SDS011;51265;53.972;12.286;2022-09-24T03:24:08;3.50;;;2.70;;
64826;SDS011;51265;53.972;12.286;2022-09-24T03:26:34;6.35;;;3.33;;
64826;SDS011;51265;53.972;12.286;2022-09-24T03:29:00;3.55;;;3.00;;
64826;SDS011;51265;53.972;12.286;2022-09-24T03:31:26;5.20;;;3.15;;
64826;SDS011;51265;53.972;12.286;2022-09-24T03:33:52;4.40;;;3.15;;
64826;SDS011;51265;53.972;12.286;2022-09-24T03:36:19;3.13;;;2.63;;
64826;SDS011;51265;53.972;12.286;2022-09-24T03:38:50;4.22;;;3.03;;
64826;SDS011;51265;53.972;12.286;2022-09-24T03:41:21;4.70;;;3.40;;
64826;SDS011;51265;53.972;12.286;2022-09-24T03:43:48;4.55;;;2.95;;
64826;SDS011;51265;53.972;12.286;2022-09-24T03:46:13;3.35;;;2.75;;
64826;SDS011;51265;53.972;12.286;2022-09-24T03:48:41;4.40;;;3.00;;
64826;SDS011;51265;53.972;12.286;2022-09-24T03:51:15;4.45;;;2.88;;
64826;SDS011;51265;53.972;12.286;2022-09-24T03:53:46;3.97;;;2.90;;
64826;SDS011;51265;53.972;12.286;2022-09-24T03:56:12;5.38;;;2.88;;
64826;SDS011;51265;53.972;12.286;2022-09-24T03:58:39;5.68;;;3.20;;
64826;SDS011;51265;53.972;12.286;2022-09-24T04:01:07;4.35;;;3.13;;
64826;SDS011;51265;53.972;12.286;2022-09-24T04:03:34;6.78;;;3.70;;
64826;SDS011;51265;53.972;12.286;2022-09-24T04:06:01;7.15;;;3.10;;
64826;SDS011;51265;53.972;12.286;2022-09-24T04:08:27;3.75;;;2.95;;
64826;SDS011;51265;53.972;12.286;2022-09-24T04:10:53;8.02;;;3.20;;
64826;SDS011;51265;53.972;12.286;2022-09-24T04:13:19;4.30;;;3.38;;
64826;SDS011;51265;53.972;12.286;2022-09-24T04:15:45;5.03;;;3.45;;
64826;SDS011;51265;53.972;12.286;2022-09-24T04:18:13;3.55;;;3.20;;
64826;SDS011;51265;53.972;12.286;2022-09-24T04:20:39;4.05;;;3.22;;
64826;SDS011;51265;53.972;12.286;2022-09-24T04:23:06;6.25;;;3.70;;
64826;SDS011;51265;53.972;12.286;2022-09-24T04:25:32;7.28;;;3.67;;
64826;SDS011;51265;53.972;12.286;2022-09-24T04:28:02;5.22;;;3.55;;
64826;SDS011;51265;53.972;12.286;2022-09-24T04:30:30;4.45;;;3.30;;
64826;SDS011;51265;53.972;12.286;2022-09-24T04:32:57;4.32;;;3.90;;
64826;SDS011;51265;53.972;12.286;2022-09-24T04:35:26;4.93;;;3.47;;
64826;SDS011;51265;53.972;12.286;2022-09-24T04:37:54;4.53;;;3.85;;
64826;SDS011;51265;53.972;12.286;2022-09-24T04:40:21;3.85;;;3.35;;
64826;SDS011;51265;53.972;12.286;2022-09-24T04:42:47;6.63;;;3.63;;
64826;SDS011;51265;53.972;12.286;2022-09-24T04:45:14;5.68;;;3.50;;
64826;SDS011;51265;53.972;12.286;2022-09-24T04:47:48;4.22;;;3.70;;
64826;SDS011;51265;53.972;12.286;2022-09-24T04:50:20;4.80;;;3.78;;
64826;SDS011;51265;53.972;12.286;2022-09-24T04:52:52;3.70;;;3.30;;
64826;SDS011;51265;53.972;12.286;2022-09-24T04:55:18;4.97;;;3.53;;
64826;SDS011;51265;53.972;12.286;2022-09-24T04:57:47;5.15;;;3.53;;
64826;SDS011;51265;53.972;12.286;2022-09-24T05:00:17;38.67;;;29.00;;
64826;SDS011;51265;53.972;12.286;2022-09-24T05:02:44;54.17;;;37.17;;
64826;SDS011;51265;53.972;12.286;2022-09-24T05:05:11;23.48;;;17.27;;
64826;SDS011;51265;53.972;12.286;2022-09-24T05:07:37;9.82;;;6.93;;
64826;SDS011;51265;53.972;12.286;2022-09-24T05:10:04;9.00;;;7.00;;
64826;SDS011;51265;53.972;12.286;2022-09-24T05:12:31;8.48;;;5.78;;
64826;SDS011;51265;53.972;12.286;2022-09-24T05:14:59;10.00;;;6.53;;
64826;SDS011;51265;53.972;12.286;2022-09-24T05:17:28;7.78;;;5.40;;
64826;SDS011;51265;53.972;12.286;2022-09-24T05:19:54;5.45;;;4.15;;
64826;SDS011;51265;53.972;12.286;2022-09-24T05:22:23;5.50;;;3.92;;
64826;SDS011;51265;53.972;12.286;2022-09-24T05:24:50;4.35;;;3.70;;
64826;SDS011;51265;53.972;12.286;2022-09-24T05:27:16;3.95;;;3.47;;
64826;SDS011;51265;53.972;12.286;2022-09-24T05:29:44;4.30;;;3.50;;
64826;SDS011;51265;53.972;12.286;2022-09-24T05:32:11;6.25;;;3.38;;
64826;SDS011;51265;53.972;12.286;2022-09-24T05:34:42;4.35;;;3.50;;
64826;SDS011;51265;53.972;12.286;2022-09-24T05:37:09;5.28;;;3.85;;
64826;SDS011;51265;53.972;12.286;2022-09-24T05:39:36;4.95;;;3.50;;
64826;SDS011;51265;53.972;12.286;2022-09-24T05:42:02;5.07;;;3.80;;
64826;SDS011;51265;53.972;12.286;2022-09-24T05:44:29;5.97;;;3.70;;
64826;SDS011;51265;53.972;12.286;2022-09-24T05:46:56;4.82;;;3.63;;
64826;SDS011;51265;53.972;12.286;2022-09-24T05:49:22;5.15;;;3.80;;
64826;SDS011;51265;53.972;12.286;2022-09-24T05:51:48;5.00;;;3.88;;
64826;SDS011;51265;53.972;12.286;2022-09-24T05:54:15;5.15;;;3.65;;
64826;SDS011;51265;53.972;12.286;2022-09-24T05:56:42;5.60;;;3.67;;
64826;SDS011;51265;53.972;12.286;2022-09-24T05:59:08;4.75;;;4.00;;
64826;SDS011;51265;53.972;12.286;2022-09-24T06:01:34;4.50;;;3.50;;
64826;SDS011;51265;53.972;12.286;2022-09-24T06:04:00;6.50;;;3.92;;
64826;SDS011;51265;53.972;12.286;2022-09-24T06:06:26;4.68;;;3.65;;
64826;SDS011;51265;53.972;12.286;2022-09-24T06:08:52;6.32;;;3.95;;
64826;SDS011;51265;53.972;12.286;2022-09-24T06:11:19;4.50;;;3.20;;
64826;SDS011;51265;53.972;12.286;2022-09-24T06:13:47;6.20;;;3.60;;
64826;SDS011;51265;53.972;12.286;2022-09-24T06:16:13;7.25;;;3.90;;
64826;SDS011;51265;53.972;12.286;2022-09-24T06:18:40;5.18;;;4.03;;
64826;SDS011;51265;53.972;12.286;2022-09-24T06:21:08;4.95;;;4.30;;
64826;SDS011;51265;53.972;12.286;2022-09-24T06:23:36;4.60;;;3.78;;
64826;SDS011;51265;53.972;12.286;2022-09-24T06:26:03;4.60;;;3.78;;
64826;SDS011;51265;53.972;12.286;2022-09-24T06:28:32;13.25;;;10.63;;
64826;SDS011;51265;53.972;12.286;2022-09-24T06:30:59;8.68;;;6.80;;
64826;SDS011;51265;53.972;12.286;2022-09-24T06:33:25;10.07;;;7.85;;
64826;SDS011;51265;53.972;12.286;2022-09-24T06:35:52;10.63;;;5.22;;
64826;SDS011;51265;53.972;12.286;2022-09-24T06:38:18;8.48;;;5.85;;
64826;SDS011;51265;53.972;12.286;2022-09-24T06:40:45;7.22;;;4.32;;
64826;SDS011;51265;53.972;12.286;2022-09-24T06:43:15;5.95;;;4.90;;
64826;SDS011;51265;53.972;12.286;2022-09-24T06:45:42;5.13;;;3.83;;
64826;SDS011;51265;53.972;12.286;2022-09-24T06:48:13;7.38;;;3.92;;
64826;SDS011;51265;53.972;12.286;2022-09-24T06:50:41;5.95;;;3.90;;
64826;SDS011;51265;53.972;12.286;2022-09-24T06:53:08;5.50;;;3.97;;
64826;SDS011;51265;53.972;12.286;2022-09-24T06:55:35;7.35;;;3.80;;
64826;SDS011;51265;53.972;12.286;2022-09-24T06:58:03;6.20;;;3.60;;
64826;SDS011;51265;53.972;12.286;2022-09-24T07:00:30;4.53;;;3.80;;
64826;SDS011;51265;53.972;12.286;2022-09-24T07:02:57;4.25;;;3.60;;
64826;SDS011;51265;53.972;12.286;2022-09-24T07:05:23;6.78;;;4.10;;
64826;SDS011;51265;53.972;12.286;2022-09-24T07:07:49;5.28;;;3.83;;
64826;SDS011;51265;53.972;12.286;2022-09-24T07:10:14;5.88;;;3.80;;
64826;SDS011;51265;53.972;12.286;2022-09-24T07:12:42;6.65;;;3.80;;
64826;SDS011;51265;53.972;12.286;2022-09-24T07:15:08;5.97;;;4.22;;
64826;SDS011;51265;53.972;12.286;2022-09-24T07:17:34;4.88;;;3.78;;
64826;SDS011;51265;53.972;12.286;2022-09-24T07:20:00;5.25;;;3.63;;
64826;SDS011;51265;53.972;12.286;2022-09-24T07:22:27;4.78;;;3.75;;
64826;SDS011;51265;53.972;12.286;2022-09-24T07:24:54;5.10;;;3.90;;
64826;SDS011;51265;53.972;12.286;2022-09-24T07:27:20;4.03;;;3.45;;
64826;SDS011;51265;53.972;12.286;2022-09-24T07:29:47;4.25;;;3.85;;
64826;SDS011;51265;53.972;12.286;2022-09-24T07:32:22;5.53;;;3.67;;
64826;SDS011;51265;53.972;12.286;2022-09-24T07:34:48;4.05;;;3.35;;
64826;SDS011;51265;53.972;12.286;2022-09-24T07:37:14;3.90;;;3.53;;
64826;SDS011;51265;53.972;12.286;2022-09-24T07:39:40;4.97;;;3.78;;
64826;SDS011;51265;53.972;12.286;2022-09-24T07:42:06;7.40;;;4.80;;
64826;SDS011;51265;53.972;12.286;2022-09-24T07:44:32;4.25;;;3.83;;
64826;SDS011;51265;53.972;12.286;2022-09-24T07:46:57;8.52;;;3.80;;
64826;SDS011;51265;53.972;12.286;2022-09-24T07:49:23;4.28;;;3.50;;
64826;SDS011;51265;53.972;12.286;2022-09-24T07:51:51;5.40;;;3.95;;
64826;SDS011;51265;53.972;12.286;2022-09-24T07:54:18;5.05;;;3.25;;
64826;SDS011;51265;53.972;12.286;2022-09-24T07:56:44;5.45;;;3.35;;
64826;SDS011;51265;53.972;12.286;2022-09-24T07:59:10;5.03;;;3.75;;
64826;SDS011;51265;53.972;12.286;2022-09-24T08:01:36;4.78;;;3.55;;
64826;SDS011;51265;53.972;12.286;2022-09-24T08:04:02;5.93;;;3.83;;
64826;SDS011;51265;53.972;12.286;2022-09-24T08:06:29;4.82;;;3.70;;
64826;SDS011;51265;53.972;12.286;2022-09-24T08:08:58;7.15;;;3.67;;
64826;SDS011;51265;53.972;12.286;2022-09-24T08:11:24;5.78;;;3.78;;
64826;SDS011;51265;53.972;12.286;2022-09-24T08:13:50;5.30;;;3.95;;
64826;SDS011;51265;53.972;12.286;2022-09-24T08:16:16;6.47;;;3.45;;
64826;SDS011;51265;53.972;12.286;2022-09-24T08:18:45;5.22;;;3.80;;
64826;SDS011;51265;53.972;12.286;2022-09-24T08:21:12;5.85;;;4.07;;
64826;SDS011;51265;53.972;12.286;2022-09-24T08:23:43;6.80;;;4.28;;
64826;SDS011;51265;53.972;12.286;2022-09-24T08:26:09;4.85;;;3.83;;
64826;SDS011;51265;53.972;12.286;2022-09-24T08:28:37;4.40;;;3.88;;
64826;SDS011;51265;53.972;12.286;2022-09-24T08:31:05;5.13;;;4.35;;
64826;SDS011;51265;53.972;12.286;2022-09-24T08:33:33;6.88;;;4.47;;
64826;SDS011;51265;53.972;12.286;2022-09-24T08:36:01;4.47;;;3.90;;
64826;SDS011;51265;53.972;12.286;2022-09-24T08:38:30;5.32;;;4.03;;
64826;SDS011;51265;53.972;12.286;2022-09-24T08:46:37;4.80;;;4.13;;
64826;SDS011;51265;53.972;12.286;2022-09-24T08:49:36;7.47;;;4.38;;
64826;SDS011;51265;53.972;12.286;2022-09-24T08:52:16;7.45;;;4.35;;
64826;SDS011;51265;53.972;12.286;2022-09-24T08:54:59;10.27;;;5.30;;
64826;SDS011;51265;53.972;12.286;2022-09-24T08:57:31;6.93;;;5.20;;
64826;SDS011;51265;53.972;12.286;2022-09-24T09:00:12;7.82;;;5.35;;
64826;SDS011;51265;53.972;12.286;2022-09-24T09:02:46;7.50;;;5.55;;
64826;SDS011;51265;53.972;12.286;2022-09-24T09:05:23;8.02;;;5.35;;
64826;SDS011;51265;53.972;12.286;2022-09-24T09:08:04;8.20;;;6.57;;
64826;SDS011;51265;53.972;12.286;2022-09-24T09:10:38;10.23;;;8.18;;
64826;SDS011;51265;53.972;12.286;2022-09-24T09:15:43;13.35;;;8.35;;
64826;SDS011;51265;53.972;12.286;2022-09-24T09:18:20;11.07;;;9.18;;
64826;SDS011;51265;53.972;12.286;2022-09-24T09:21:14;10.23;;;8.98;;
64826;SDS011;51265;53.972;12.286;2022-09-24T09:23:51;10.45;;;8.48;;
64826;SDS011;51265;53.972;12.286;2022-09-24T09:26:21;10.05;;;8.20;;
64826;SDS011;51265;53.972;12.286;2022-09-24T09:28:47;11.05;;;8.05;;
64826;SDS011;51265;53.972;12.286;2022-09-24T09:31:31;16.27;;;10.38;;
64826;SDS011;51265;53.972;12.286;2022-09-24T09:34:14;11.13;;;9.07;;
64826;SDS011;51265;53.972;12.286;2022-09-24T09:45:02;12.10;;;8.23;;
64826;SDS011;51265;53.972;12.286;2022-09-24T09:47:44;9.25;;;7.45;;
64826;SDS011;51265;53.972;12.286;2022-09-24T09:50:20;10.13;;;7.28;;
64826;SDS011;51265;53.972;12.286;2022-09-24T09:52:48;11.60;;;8.02;;
64826;SDS011;51265;53.972;12.286;2022-09-24T09:55:25;9.35;;;7.47;;
64826;SDS011;51265;53.972;12.286;2022-09-24T09:57:57;10.27;;;7.60;;
64826;SDS011;51265;53.972;12.286;2022-09-24T10:00:34;10.63;;;6.80;;
64826;SDS011;51265;53.972;12.286;2022-09-24T10:03:01;6.43;;;5.70;;
64826;SDS011;51265;53.972;12.286;2022-09-24T10:05:28;9.90;;;6.55;;
64826;SDS011;51265;53.972;12.286;2022-09-24T10:07:57;6.68;;;5.60;;
64826;SDS011;51265;53.972;12.286;2022-09-24T10:10:24;7.32;;;5.55;;
64826;SDS011;51265;53.972;12.286;2022-09-24T10:13:05;8.82;;;5.75;;
64826;SDS011;51265;53.972;12.286;2022-09-24T10:15:33;9.48;;;6.00;;
64826;SDS011;51265;53.972;12.286;2022-09-24T10:18:04;7.10;;;5.82;;
64826;SDS011;51265;53.972;12.286;2022-09-24T10:20:30;7.88;;;5.75;;
64826;SDS011;51265;53.972;12.286;2022-09-24T10:22:59;11.38;;;6.07;;
64826;SDS011;51265;53.972;12.286;2022-09-24T10:25:28;7.45;;;5.60;;
64826;SDS011;51265;53.972;12.286;2022-09-24T10:27:56;9.57;;;5.22;;
64826;SDS011;51265;53.972;12.286;2022-09-24T10:30:53;8.88;;;5.70;;
64826;SDS011;51265;53.972;12.286;2022-09-24T10:33:24;7.22;;;6.03;;
64826;SDS011;51265;53.972;12.286;2022-09-24T10:36:01;6.90;;;5.30;;
64826;SDS011;51265;53.972;12.286;2022-09-24T10:38:29;6.53;;;5.13;;
64826;SDS011;51265;53.972;12.286;2022-09-24T10:40:56;6.88;;;5.68;;
64826;SDS011;51265;53.972;12.286;2022-09-24T10:43:23;5.78;;;5.20;;
64826;SDS011;51265;53.972;12.286;2022-09-24T10:48:56;6.25;;;4.65;;
64826;SDS011;51265;53.972;12.286;2022-09-24T10:52:16;7.18;;;3.95;;
64826;SDS011;51265;53.972;12.286;2022-09-24T10:54:35;7.15;;;4.40;;
64826;SDS011;51265;53.972;12.286;2022-09-24T10:57:30;6.00;;;4.28;;
64826;SDS011;51265;53.972;12.286;2022-09-24T11:05:03;6.13;;;3.88;;
64826;SDS011;51265;53.972;12.286;2022-09-24T11:07:55;6.07;;;4.00;;
64826;SDS011;51265;53.972;12.286;2022-09-24T11:13:30;5.32;;;3.80;;
64826;SDS011;51265;53.972;12.286;2022-09-24T11:16:17;7.43;;;3.65;;
64826;SDS011;51265;53.972;12.286;2022-09-24T11:19:02;4.55;;;3.17;;
64826;SDS011;51265;53.972;12.286;2022-09-24T11:30:09;3.53;;;3.00;;
64826;SDS011;51265;53.972;12.286;2022-09-24T11:44:22;3.10;;;1.77;;
64826;SDS011;51265;53.972;12.286;2022-09-24T11:52:47;2.78;;;2.15;;
64826;SDS011;51265;53.972;12.286;2022-09-24T11:55:21;3.00;;;2.35;;
64826;SDS011;51265;53.972;12.286;2022-09-24T12:00:31;23.92;;;2.58;;
64826;SDS011;51265;53.972;12.286;2022-09-24T12:03:05;3.35;;;2.10;;
64826;SDS011;51265;53.972;12.286;2022-09-24T12:05:40;4.97;;;2.60;;
64826;SDS011;51265;53.972;12.286;2022-09-24T12:16:40;2.72;;;1.95;;
64826;SDS011;51265;53.972;12.286;2022-09-24T12:19:29;4.00;;;2.17;;
64826;SDS011;51265;53.972;12.286;2022-09-24T12:22:00;3.35;;;1.80;;
64826;SDS011;51265;53.972;12.286;2022-09-24T12:24:38;2.95;;;2.00;;
64826;SDS011;51265;53.972;12.286;2022-09-24T12:27:15;2.47;;;1.73;;
64826;SDS011;51265;53.972;12.286;2022-09-24T12:32:56;5.43;;;2.25;;
64826;SDS011;51265;53.972;12.286;2022-09-24T12:41:05;3.17;;;1.70;;
64826;SDS011;51265;53.972;12.286;2022-09-24T12:49:27;4.35;;;1.85;;
64826;SDS011;51265;53.972;12.286;2022-09-24T12:52:00;3.55;;;1.55;;
64826;SDS011;51265;53.972;12.286;2022-09-24T12:54:30;2.15;;;1.77;;
64826;SDS011;51265;53.972;12.286;2022-09-24T12:57:10;2.13;;;1.73;;
64826;SDS011;51265;53.972;12.286;2022-09-24T12:59:55;2.55;;;1.75;;
64826;SDS011;51265;53.972;12.286;2022-09-24T13:02:23;7.35;;;4.47;;
64826;SDS011;51265;53.972;12.286;2022-09-24T13:07:40;7.88;;;5.28;;
64826;SDS011;51265;53.972;12.286;2022-09-24T13:12:42;3.78;;;2.08;;
64826;SDS011;51265;53.972;12.286;2022-09-24T13:20:33;4.50;;;2.17;;
64826;SDS011;51265;53.972;12.286;2022-09-24T13:25:53;2.33;;;1.67;;
64826;SDS011;51265;53.972;12.286;2022-09-24T13:28:23;2.05;;;1.50;;
64826;SDS011;51265;53.972;12.286;2022-09-24T13:30:57;4.25;;;1.75;;
64826;SDS011;51265;53.972;12.286;2022-09-24T13:33:29;2.38;;;1.77;;
64826;SDS011;51265;53.972;12.286;2022-09-24T13:36:02;4.70;;;2.10;;
64826;SDS011;51265;53.972;12.286;2022-09-24T13:38:37;2.33;;;1.90;;
64826;SDS011;51265;53.972;12.286;2022-09-24T13:46:22;3.83;;;2.00;;
64826;SDS011;51265;53.972;12.286;2022-09-24T13:48:51;2.53;;;1.92;;
64826;SDS011;51265;53.972;12.286;2022-09-24T13:51:24;2.95;;;1.90;;
64826;SDS011;51265;53.972;12.286;2022-09-24T13:54:01;3.05;;;1.83;;
64826;SDS011;51265;53.972;12.286;2022-09-24T13:56:31;4.80;;;2.03;;
64826;SDS011;51265;53.972;12.286;2022-09-24T13:59:04;4.05;;;2.25;;
64826;SDS011;51265;53.972;12.286;2022-09-24T14:01:38;3.53;;;2.25;;
64826;SDS011;51265;53.972;12.286;2022-09-24T14:04:20;3.10;;;2.00;;
64826;SDS011;51265;53.972;12.286;2022-09-24T14:06:49;4.00;;;2.30;;
64826;SDS011;51265;53.972;12.286;2022-09-24T14:09:25;3.83;;;2.38;;
64826;SDS011;51265;53.972;12.286;2022-09-24T14:11:54;3.30;;;2.20;;
64826;SDS011;51265;53.972;12.286;2022-09-24T14:14:26;3.17;;;2.00;;
64826;SDS011;51265;53.972;12.286;2022-09-24T14:17:04;2.63;;;2.30;;
64826;SDS011;51265;53.972;12.286;2022-09-24T14:19:31;3.00;;;1.95;;
64826;SDS011;51265;53.972;12.286;2022-09-24T14:21:59;3.35;;;1.95;;
64826;SDS011;51265;53.972;12.286;2022-09-24T14:25:14;2.80;;;2.13;;
64826;SDS011;51265;53.972;12.286;2022-09-24T14:27:20;8.10;;;3.58;;
64826;SDS011;51265;53.972;12.286;2022-09-24T14:29:52;5.30;;;3.35;;
64826;SDS011;51265;53.972;12.286;2022-09-24T14:32:30;5.93;;;3.35;;
64826;SDS011;51265;53.972;12.286;2022-09-24T14:34:59;3.13;;;1.90;;
64826;SDS011;51265;53.972;12.286;2022-09-24T14:37:30;3.38;;;1.95;;
64826;SDS011;51265;53.972;12.286;2022-09-24T14:40:17;6.97;;;1.90;;
64826;SDS011;51265;53.972;12.286;2022-09-24T14:42:46;2.78;;;1.35;;
64826;SDS011;51265;53.972;12.286;2022-09-24T14:45:20;4.85;;;1.88;;
64826;SDS011;51265;53.972;12.286;2022-09-24T14:50:53;3.65;;;1.88;;
64826;SDS011;51265;53.972;12.286;2022-09-24T14:53:21;3.70;;;2.00;;
64826;SDS011;51265;53.972;12.286;2022-09-24T14:55:49;7.50;;;1.98;;
64826;SDS011;51265;53.972;12.286;2022-09-24T14:58:22;2.78;;;1.88;;
64826;SDS011;51265;53.972;12.286;2022-09-24T15:00:56;3.22;;;1.98;;
64826;SDS011;51265;53.972;12.286;2022-09-24T15:03:40;3.53;;;1.95;;
64826;SDS011;51265;53.972;12.286;2022-09-24T15:06:15;2.85;;;1.70;;
64826;SDS011;51265;53.972;12.286;2022-09-24T15:11:13;4.80;;;1.60;;
64826;SDS011;51265;53.972;12.286;2022-09-24T15:13:41;3.75;;;1.65;;
64826;SDS011;51265;53.972;12.286;2022-09-24T15:16:27;2.25;;;1.90;;
64826;SDS011;51265;53.972;12.286;2022-09-24T15:21:34;3.63;;;1.98;;
64826;SDS011;51265;53.972;12.286;2022-09-24T15:24:00;3.60;;;2.03;;
64826;SDS011;51265;53.972;12.286;2022-09-24T15:26:28;2.70;;;1.42;;
64826;SDS011;51265;53.972;12.286;2022-09-24T15:28:59;2.35;;;1.77;;
64826;SDS011;51265;53.972;12.286;2022-09-24T15:31:26;4.70;;;1.90;;
64826;SDS011;51265;53.972;12.286;2022-09-24T15:33:52;6.03;;;1.70;;
64826;SDS011;51265;53.972;12.286;2022-09-24T15:36:20;2.85;;;1.70;;
64826;SDS011;51265;53.972;12.286;2022-09-24T15:38:50;10.35;;;3.03;;
64826;SDS011;51265;53.972;12.286;2022-09-24T15:41:22;2.85;;;1.90;;
64826;SDS011;51265;53.972;12.286;2022-09-24T15:43:48;8.02;;;2.33;;
64826;SDS011;51265;53.972;12.286;2022-09-24T15:46:14;5.75;;;1.90;;
64826;SDS011;51265;53.972;12.286;2022-09-24T15:48:39;7.70;;;2.70;;
64826;SDS011;51265;53.972;12.286;2022-09-24T15:51:05;6.32;;;2.40;;
64826;SDS011;51265;53.972;12.286;2022-09-24T15:53:34;3.35;;;2.35;;
64826;SDS011;51265;53.972;12.286;2022-09-24T15:56:00;2.42;;;2.10;;
64826;SDS011;51265;53.972;12.286;2022-09-24T15:58:27;3.97;;;2.13;;
64826;SDS011;51265;53.972;12.286;2022-09-24T16:00:53;3.42;;;1.95;;
64826;SDS011;51265;53.972;12.286;2022-09-24T16:03:21;1.85;;;1.60;;
64826;SDS011;51265;53.972;12.286;2022-09-24T16:05:50;3.83;;;2.78;;
64826;SDS011;51265;53.972;12.286;2022-09-24T16:08:16;5.97;;;3.45;;
64826;SDS011;51265;53.972;12.286;2022-09-24T16:10:42;5.20;;;2.88;;
64826;SDS011;51265;53.972;12.286;2022-09-24T16:13:08;3.15;;;2.00;;
64826;SDS011;51265;53.972;12.286;2022-09-24T16:15:35;4.38;;;2.47;;
64826;SDS011;51265;53.972;12.286;2022-09-24T16:18:01;3.63;;;2.10;;
64826;SDS011;51265;53.972;12.286;2022-09-24T16:20:27;4.30;;;2.35;;
64826;SDS011;51265;53.972;12.286;2022-09-24T16:22:53;2.45;;;2.00;;
64826;SDS011;51265;53.972;12.286;2022-09-24T16:25:19;3.58;;;2.03;;
64826;SDS011;51265;53.972;12.286;2022-09-24T16:27:44;3.25;;;2.00;;
64826;SDS011;51265;53.972;12.286;2022-09-24T16:30:10;9.13;;;2.15;;
64826;SDS011;51265;53.972;12.286;2022-09-24T16:32:36;4.63;;;2.00;;
64826;SDS011;51265;53.972;12.286;2022-09-24T16:35:02;4.07;;;2.60;;
64826;SDS011;51265;53.972;12.286;2022-09-24T16:37:28;4.63;;;2.60;;
64826;SDS011;51265;53.972;12.286;2022-09-24T16:39:55;4.47;;;3.10;;
64826;SDS011;51265;53.972;12.286;2022-09-24T16:42:21;5.95;;;2.95;;
64826;SDS011;51265;53.972;12.286;2022-09-24T16:44:50;3.88;;;2.65;;
64826;SDS011;51265;53.972;12.286;2022-09-24T16:47:16;5.00;;;3.25;;
64826;SDS011;51265;53.972;12.286;2022-09-24T16:49:43;5.57;;;3.33;;
64826;SDS011;51265;53.972;12.286;2022-09-24T16:52:09;5.97;;;3.35;;
64826;SDS011;51265;53.972;12.286;2022-09-24T16:54:35;3.88;;;3.03;;
64826;SDS011;51265;53.972;12.286;2022-09-24T16:57:01;9.50;;;3.83;;